createdAt,value
2019-03-21T00:00:38.107Z,1028.53
2019-03-21T00:01:38.125Z,1028.49
2019-03-21T00:02:38.139Z,1028.52
2019-03-21T00:03:38.158Z,1028.52
2019-03-21T00:04:38.178Z,1028.54
2019-03-21T00:05:38.203Z,1028.54
2019-03-21T00:06:38.214Z,1028.54
2019-03-21T00:07:38.237Z,1028.54
2019-03-21T00:08:38.352Z,1028.53
2019-03-21T00:09:38.279Z,1028.51
2019-03-21T00:10:38.291Z,1028.51
2019-03-21T00:12:38.332Z,1028.55
2019-03-21T00:13:38.352Z,1028.54
2019-03-21T00:14:38.372Z,1028.54
2019-03-21T00:15:38.385Z,1028.54
2019-03-21T00:16:38.408Z,1028.53
2019-03-21T00:17:38.421Z,1028.57
2019-03-21T00:18:38.444Z,1028.54
2019-03-21T00:19:38.460Z,1028.53
2019-03-21T00:20:38.482Z,1028.49
2019-03-21T00:21:38.501Z,1028.53
2019-03-21T00:22:38.520Z,1028.52
2019-03-21T00:23:38.537Z,1028.52
2019-03-21T00:24:38.559Z,1028.54
2019-03-21T00:25:38.571Z,1028.53
2019-03-21T00:26:38.594Z,1028.53
2019-03-21T00:27:38.610Z,1028.53
2019-03-21T00:28:38.632Z,1028.53
2019-03-21T00:29:38.646Z,1028.54
2019-03-21T00:30:38.672Z,1028.51
2019-03-21T00:31:38.687Z,1028.5
2019-03-21T00:32:38.707Z,1028.56
2019-03-21T00:33:38.721Z,1028.53
2019-03-21T00:34:38.740Z,1028.52
2019-03-21T00:35:38.811Z,1028.51
2019-03-21T00:36:38.783Z,1028.58
2019-03-21T00:37:38.796Z,1028.49
2019-03-21T00:38:38.819Z,1028.52
2019-03-21T00:39:38.833Z,1028.56
2019-03-21T00:40:38.856Z,1028.51
2019-03-21T00:41:38.871Z,1028.5
2019-03-21T00:42:38.893Z,1028.54
2019-03-21T00:44:39.028Z,1028.53
2019-03-21T00:45:38.950Z,1028.52
2019-03-21T00:46:38.968Z,1028.58
2019-03-21T00:47:38.987Z,1028.53
2019-03-21T00:48:39.006Z,1028.58
2019-03-21T00:49:39.024Z,1028.59
2019-03-21T00:50:39.038Z,1028.57
2019-03-21T00:51:39.057Z,1028.58
2019-03-21T00:52:39.080Z,1028.6
2019-03-21T00:53:39.094Z,1028.6
2019-03-21T00:54:39.113Z,1028.58
2019-03-21T00:55:39.136Z,1028.56
2019-03-21T00:56:39.150Z,1028.55
2019-03-21T00:57:39.173Z,1028.55
2019-03-21T00:58:39.191Z,1028.53
2019-03-21T01:00:39.229Z,1028.5
2019-03-21T01:01:39.247Z,1028.52
2019-03-21T01:02:39.266Z,1028.52
2019-03-21T01:03:39.285Z,1028.57
2019-03-21T01:04:39.303Z,1028.51
2019-03-21T01:05:39.321Z,1028.59
2019-03-21T01:06:39.340Z,1028.55
2019-03-21T01:07:39.355Z,1028.55
2019-03-21T01:08:39.379Z,1028.56
2019-03-21T01:09:39.391Z,1028.61
2019-03-21T01:10:39.415Z,1028.59
2019-03-21T01:11:39.434Z,1028.59
2019-03-21T01:12:39.452Z,1028.57
2019-03-21T01:13:39.467Z,1028.51
2019-03-21T01:14:39.486Z,1028.5
2019-03-21T01:16:39.521Z,1028.52
2019-03-21T01:17:39.542Z,1028.5
2019-03-21T01:18:39.564Z,1028.52
2019-03-21T01:19:39.589Z,1028.56
2019-03-21T01:20:39.601Z,1028.56
2019-03-21T01:21:39.620Z,1028.56
2019-03-21T01:22:39.638Z,1028.53
2019-03-21T01:23:39.652Z,1028.58
2019-03-21T01:24:39.671Z,1028.57
2019-03-21T01:25:39.694Z,1028.55
2019-03-21T01:26:39.714Z,1028.58
2019-03-21T01:27:39.730Z,1028.6
2019-03-21T01:28:39.745Z,1028.58
2019-03-21T01:29:39.768Z,1028.58
2019-03-21T01:30:39.782Z,1028.54
2019-03-21T01:32:39.820Z,1028.48
2019-03-21T01:33:39.843Z,1028.53
2019-03-21T01:34:39.861Z,1028.48
2019-03-21T01:35:39.876Z,1028.47
2019-03-21T01:36:39.899Z,1028.47
2019-03-21T01:37:39.912Z,1028.47
2019-03-21T01:38:39.935Z,1028.42
2019-03-21T01:39:39.952Z,1028.45
2019-03-21T01:40:39.973Z,1028.44
2019-03-21T01:41:39.987Z,1028.4
2019-03-21T01:42:40.010Z,1028.46
2019-03-21T01:43:40.025Z,1028.41
2019-03-21T01:44:41.145Z,1028.45
2019-03-21T01:45:40.064Z,1028.38
2019-03-21T01:47:40.102Z,1028.37
2019-03-21T01:48:40.123Z,1028.31
2019-03-21T01:49:40.137Z,1028.31
2019-03-21T01:50:40.161Z,1028.29
2019-03-21T01:51:40.180Z,1028.23
2019-03-21T01:52:40.193Z,1028.26
2019-03-21T01:53:40.216Z,1028.29
2019-03-21T01:54:40.231Z,1028.26
2019-03-21T01:55:40.253Z,1028.27
2019-03-21T01:56:40.268Z,1028.27
2019-03-21T01:57:40.291Z,1028.3
2019-03-21T01:58:40.310Z,1028.29
2019-03-21T01:59:40.327Z,1028.31
2019-03-21T02:00:40.343Z,1028.33
2019-03-21T02:01:40.366Z,1028.33
2019-03-21T02:02:40.384Z,1028.33
2019-03-21T02:03:40.406Z,1028.28
2019-03-21T02:04:40.422Z,1028.26
2019-03-21T02:05:40.440Z,1028.26
2019-03-21T02:06:40.458Z,1028.24
2019-03-21T02:07:40.473Z,1028.24
2019-03-21T02:08:40.495Z,1028.18
2019-03-21T02:09:40.510Z,1028.19
2019-03-21T02:10:40.534Z,1028.19
2019-03-21T02:11:40.547Z,1028.2
2019-03-21T02:12:40.573Z,1028.14
2019-03-21T02:13:40.589Z,1028.18
2019-03-21T02:14:51.476Z,1028.19
2019-03-21T02:15:40.800Z,1028.18
2019-03-21T02:16:40.640Z,1028.21
2019-03-21T02:17:40.659Z,1028.15
2019-03-21T02:19:40.696Z,1028.14
2019-03-21T02:20:40.720Z,1028.11
2019-03-21T02:21:40.733Z,1028.13
2019-03-21T02:22:40.756Z,1028.14
2019-03-21T02:23:40.771Z,1028.09
2019-03-21T02:24:40.794Z,1028.06
2019-03-21T02:25:40.812Z,1028.03
2019-03-21T02:26:40.826Z,1028
2019-03-21T02:27:40.846Z,1028.05
2019-03-21T02:28:40.867Z,1028.07
2019-03-21T02:29:40.882Z,1028.08
2019-03-21T02:30:40.910Z,1028.03
2019-03-21T02:31:40.921Z,1028.09
2019-03-21T02:32:40.943Z,1028.1
2019-03-21T02:33:40.957Z,1028.08
2019-03-21T02:35:41.003Z,1028.07
2019-03-21T02:36:41.013Z,1028.06
2019-03-21T02:37:41.031Z,1028.08
2019-03-21T02:38:41.055Z,1028.07
2019-03-21T02:39:41.075Z,1028.01
2019-03-21T02:40:41.091Z,1028.02
2019-03-21T02:41:41.111Z,1028.03
2019-03-21T02:42:41.126Z,1028.05
2019-03-21T02:43:41.162Z,1028.01
2019-03-21T02:44:41.315Z,1027.99
2019-03-21T02:45:41.184Z,1027.98
2019-03-21T02:46:41.200Z,1027.97
2019-03-21T02:47:41.222Z,1028
2019-03-21T02:48:41.241Z,1027.98
2019-03-21T02:49:41.260Z,1027.99
2019-03-21T02:51:41.292Z,1028
2019-03-21T02:52:41.315Z,1027.96
2019-03-21T02:53:41.331Z,1027.98
2019-03-21T02:54:41.353Z,1028.03
2019-03-21T02:55:41.366Z,1027.96
2019-03-21T02:56:41.389Z,1027.96
2019-03-21T02:57:41.404Z,1027.93
2019-03-21T02:58:41.426Z,1027.96
2019-03-21T02:59:41.442Z,1027.99
2019-03-21T03:00:41.465Z,1028.02
2019-03-21T03:01:41.482Z,1028.02
2019-03-21T03:02:41.502Z,1028
2019-03-21T03:03:41.520Z,1028.02
2019-03-21T03:04:41.534Z,1028.03
2019-03-21T03:05:41.552Z,1028
2019-03-21T03:07:41.592Z,1028.02
2019-03-21T03:08:41.608Z,1028.02
2019-03-21T03:09:41.634Z,1028.03
2019-03-21T03:10:41.645Z,1028.01
2019-03-21T03:11:41.673Z,1028.03
2019-03-21T03:12:41.682Z,1028.01
2019-03-21T03:13:41.704Z,1028.03
2019-03-21T03:14:41.720Z,1028.03
2019-03-21T03:15:41.744Z,1028.06
2019-03-21T03:16:41.755Z,1028.05
2019-03-21T03:17:41.779Z,1028.1
2019-03-21T03:18:41.805Z,1028.08
2019-03-21T03:19:41.820Z,1028.12
2019-03-21T03:20:41.837Z,1028.09
2019-03-21T03:22:41.873Z,1028.09
2019-03-21T03:23:41.886Z,1028.1
2019-03-21T03:24:41.912Z,1028.08
2019-03-21T03:25:41.929Z,1028.06
2019-03-21T03:26:41.951Z,1028.08
2019-03-21T03:27:41.960Z,1028.1
2019-03-21T03:28:41.979Z,1028.13
2019-03-21T03:29:42.006Z,1028.15
2019-03-21T03:30:42.018Z,1028.16
2019-03-21T03:31:42.035Z,1028.15
2019-03-21T03:32:42.059Z,1028.2
2019-03-21T03:33:42.074Z,1028.2
2019-03-21T03:34:42.097Z,1028.14
2019-03-21T03:35:42.110Z,1028.17
2019-03-21T03:36:42.137Z,1028.17
2019-03-21T03:37:42.247Z,1028.16
2019-03-21T03:38:42.165Z,1028.16
2019-03-21T03:39:42.189Z,1028.19
2019-03-21T03:40:42.203Z,1028.2
2019-03-21T03:41:42.225Z,1028.2
2019-03-21T03:42:42.239Z,1028.22
2019-03-21T03:43:42.263Z,1028.19
2019-03-21T03:44:42.280Z,1028.19
2019-03-21T03:45:42.311Z,1028.18
2019-03-21T03:46:42.317Z,1028.18
2019-03-21T03:47:42.349Z,1028.2
2019-03-21T03:48:42.359Z,1028.22
2019-03-21T03:49:42.370Z,1028.24
2019-03-21T03:50:42.393Z,1028.24
2019-03-21T03:51:42.408Z,1028.24
2019-03-21T03:52:42.429Z,1028.2
2019-03-21T03:54:42.476Z,1028.24
2019-03-21T03:55:42.486Z,1028.23
2019-03-21T03:56:42.499Z,1028.2
2019-03-21T03:57:42.524Z,1028.21
2019-03-21T03:58:42.541Z,1028.19
2019-03-21T03:59:42.555Z,1028.19
2019-03-21T04:00:42.584Z,1028.2
2019-03-21T04:01:42.593Z,1028.22
2019-03-21T04:02:42.611Z,1028.24
2019-03-21T04:03:42.632Z,1028.25
2019-03-21T04:04:42.653Z,1028.26
2019-03-21T04:05:42.673Z,1028.27
2019-03-21T04:06:42.685Z,1028.25
2019-03-21T04:07:42.708Z,1028.26
2019-03-21T04:08:42.722Z,1028.24
2019-03-21T04:10:42.759Z,1028.2
2019-03-21T04:11:42.789Z,1028.23
2019-03-21T04:12:42.802Z,1028.19
2019-03-21T04:13:42.815Z,1028.19
2019-03-21T04:14:42.834Z,1028.19
2019-03-21T04:15:52.161Z,1028.19
2019-03-21T04:16:42.877Z,1028.19
2019-03-21T04:17:42.897Z,1028.22
2019-03-21T04:18:42.913Z,1028.25
2019-03-21T04:19:42.932Z,1028.23
2019-03-21T04:20:42.953Z,1028.28
2019-03-21T04:21:42.965Z,1028.24
2019-03-21T04:22:42.982Z,1028.26
2019-03-21T04:23:43.009Z,1028.29
2019-03-21T04:24:43.021Z,1028.29
2019-03-21T04:26:43.062Z,1028.32
2019-03-21T04:27:43.080Z,1028.29
2019-03-21T04:28:43.106Z,1028.3
2019-03-21T04:29:43.119Z,1028.25
2019-03-21T04:30:43.138Z,1028.22
2019-03-21T04:31:43.176Z,1028.24
2019-03-21T04:32:43.170Z,1028.22
2019-03-21T04:33:43.195Z,1028.22
2019-03-21T04:34:43.208Z,1028.24
2019-03-21T04:35:43.230Z,1028.26
2019-03-21T04:36:43.249Z,1028.22
2019-03-21T04:37:43.262Z,1028.24
2019-03-21T04:38:43.285Z,1028.25
2019-03-21T04:39:43.299Z,1028.21
2019-03-21T04:40:43.318Z,1028.23
2019-03-21T04:42:43.401Z,1028.23
2019-03-21T04:43:43.377Z,1028.25
2019-03-21T04:44:44.440Z,1028.29
2019-03-21T04:45:43.414Z,1028.3
2019-03-21T04:46:43.429Z,1028.23
2019-03-21T04:47:43.451Z,1028.28
2019-03-21T04:48:43.510Z,1028.27
2019-03-21T04:49:43.489Z,1028.29
2019-03-21T04:50:43.509Z,1028.3
2019-03-21T04:51:43.521Z,1028.34
2019-03-21T04:52:43.540Z,1028.35
2019-03-21T04:53:43.571Z,1028.42
2019-03-21T04:54:43.578Z,1028.33
2019-03-21T04:55:43.602Z,1028.37
2019-03-21T04:57:43.640Z,1028.39
2019-03-21T04:58:43.653Z,1028.4
2019-03-21T04:59:43.676Z,1028.41
2019-03-21T05:00:43.697Z,1028.42
2019-03-21T05:01:43.714Z,1028.39
2019-03-21T05:02:43.727Z,1028.38
2019-03-21T05:03:43.746Z,1028.33
2019-03-21T05:04:43.769Z,1028.34
2019-03-21T05:05:43.785Z,1028.34
2019-03-21T05:06:43.806Z,1028.38
2019-03-21T05:07:43.821Z,1028.31
2019-03-21T05:08:43.845Z,1028.32
2019-03-21T05:09:43.857Z,1028.31
2019-03-21T05:10:43.876Z,1028.35
2019-03-21T05:11:43.898Z,1028.35
2019-03-21T05:12:43.925Z,1028.35
2019-03-21T05:13:43.937Z,1028.36
2019-03-21T05:14:43.950Z,1028.36
2019-03-21T05:15:43.973Z,1028.4
2019-03-21T05:16:43.987Z,1028.34
2019-03-21T05:17:44.012Z,1028.31
2019-03-21T05:18:44.025Z,1028.36
2019-03-21T05:19:44.048Z,1028.4
2019-03-21T05:20:44.064Z,1028.37
2019-03-21T05:21:44.084Z,1028.39
2019-03-21T05:22:44.148Z,1028.37
2019-03-21T05:23:44.122Z,1028.39
2019-03-21T05:24:44.136Z,1028.4
2019-03-21T05:25:44.160Z,1028.39
2019-03-21T05:26:44.181Z,1028.44
2019-03-21T05:27:44.196Z,1028.43
2019-03-21T05:29:44.230Z,1028.39
2019-03-21T05:30:44.252Z,1028.39
2019-03-21T05:31:44.266Z,1028.35
2019-03-21T05:32:44.289Z,1028.37
2019-03-21T05:33:44.304Z,1028.37
2019-03-21T05:34:44.324Z,1028.39
2019-03-21T05:35:44.345Z,1028.35
2019-03-21T05:36:44.363Z,1028.36
2019-03-21T05:37:44.382Z,1028.36
2019-03-21T05:38:44.396Z,1028.31
2019-03-21T05:39:44.420Z,1028.34
2019-03-21T05:40:44.434Z,1028.34
2019-03-21T05:41:44.453Z,1028.33
2019-03-21T05:42:44.471Z,1028.36
2019-03-21T05:43:44.495Z,1028.37
2019-03-21T05:45:44.527Z,1028.35
2019-03-21T05:46:44.549Z,1028.38
2019-03-21T05:47:44.569Z,1028.38
2019-03-21T05:48:44.586Z,1028.37
2019-03-21T05:49:44.605Z,1028.37
2019-03-21T05:50:44.620Z,1028.37
2019-03-21T05:51:44.639Z,1028.4
2019-03-21T05:52:44.662Z,1028.36
2019-03-21T05:53:44.676Z,1028.35
2019-03-21T05:54:44.701Z,1028.43
2019-03-21T05:55:44.713Z,1028.43
2019-03-21T05:56:44.736Z,1028.47
2019-03-21T05:57:44.751Z,1028.46
2019-03-21T05:58:44.773Z,1028.5
2019-03-21T05:59:44.788Z,1028.52
2019-03-21T06:01:44.825Z,1028.5
2019-03-21T06:02:44.849Z,1028.51
2019-03-21T06:03:44.863Z,1028.49
2019-03-21T06:04:44.884Z,1028.47
2019-03-21T06:05:44.900Z,1028.51
2019-03-21T06:06:44.923Z,1028.51
2019-03-21T06:07:44.940Z,1028.5
2019-03-21T06:08:44.955Z,1028.53
2019-03-21T06:09:44.979Z,1028.5
2019-03-21T06:10:44.998Z,1028.58
2019-03-21T06:11:45.015Z,1028.54
2019-03-21T06:12:45.030Z,1028.58
2019-03-21T06:13:45.054Z,1028.6
2019-03-21T06:14:45.073Z,1028.62
2019-03-21T06:15:45.086Z,1028.65
2019-03-21T06:17:45.125Z,1028.62
2019-03-21T06:18:45.143Z,1028.62
2019-03-21T06:19:45.165Z,1028.65
2019-03-21T06:20:45.185Z,1028.63
2019-03-21T06:21:45.203Z,1028.68
2019-03-21T06:22:45.217Z,1028.68
2019-03-21T06:23:45.248Z,1028.72
2019-03-21T06:24:45.257Z,1028.74
2019-03-21T06:25:45.278Z,1028.75
2019-03-21T06:26:45.292Z,1028.73
2019-03-21T06:27:45.315Z,1028.76
2019-03-21T06:28:45.335Z,1028.74
2019-03-21T06:29:45.350Z,1028.77
2019-03-21T06:30:45.368Z,1028.76
2019-03-21T06:32:45.411Z,1028.71
2019-03-21T06:33:45.425Z,1028.74
2019-03-21T06:34:45.448Z,1028.78
2019-03-21T06:35:45.467Z,1028.82
2019-03-21T06:36:45.486Z,1028.84
2019-03-21T06:37:45.500Z,1028.84
2019-03-21T06:38:45.519Z,1028.82
2019-03-21T06:39:45.546Z,1028.89
2019-03-21T06:40:45.561Z,1028.84
2019-03-21T06:41:45.575Z,1028.88
2019-03-21T06:42:45.602Z,1028.91
2019-03-21T06:43:45.616Z,1028.93
2019-03-21T06:44:45.636Z,1028.95
2019-03-21T06:45:48.041Z,1028.96
2019-03-21T06:46:49.560Z,1028.96
2019-03-21T06:47:45.689Z,1028.94
2019-03-21T06:48:45.712Z,1028.97
2019-03-21T06:49:46.612Z,1028.96
2019-03-21T06:50:45.750Z,1029.01
2019-03-21T06:51:45.769Z,1028.96
2019-03-21T06:52:45.788Z,1029.02
2019-03-21T06:53:45.803Z,1028.98
2019-03-21T06:54:45.822Z,1029.01
2019-03-21T06:55:45.844Z,1028.98
2019-03-21T06:56:45.859Z,1029
2019-03-21T06:57:45.883Z,1028.99
2019-03-21T06:58:45.898Z,1028.9
2019-03-21T06:59:45.920Z,1028.91
2019-03-21T07:00:45.935Z,1028.95
2019-03-21T07:01:45.954Z,1028.93
2019-03-21T07:02:45.972Z,1028.96
2019-03-21T07:04:46.014Z,1028.93
2019-03-21T07:05:46.030Z,1028.93
2019-03-21T07:06:46.053Z,1028.95
2019-03-21T07:07:46.070Z,1028.95
2019-03-21T07:08:46.087Z,1028.98
2019-03-21T07:09:46.113Z,1029
2019-03-21T07:10:46.124Z,1029
2019-03-21T07:11:46.145Z,1029.03
2019-03-21T07:12:46.169Z,1029.03
2019-03-21T07:13:46.184Z,1029.08
2019-03-21T07:14:46.204Z,1029.08
2019-03-21T07:15:46.219Z,1029.11
2019-03-21T07:16:46.243Z,1029.07
2019-03-21T07:17:46.257Z,1029.09
2019-03-21T07:18:46.280Z,1029.07
2019-03-21T07:20:46.318Z,1029.15
2019-03-21T07:21:46.337Z,1029.17
2019-03-21T07:22:46.359Z,1029.11
2019-03-21T07:23:46.376Z,1029.19
2019-03-21T07:24:46.390Z,1029.15
2019-03-21T07:25:46.414Z,1029.2
2019-03-21T07:26:46.429Z,1029.2
2019-03-21T07:27:46.453Z,1029.22
2019-03-21T07:28:46.466Z,1029.21
2019-03-21T07:29:46.490Z,1029.2
2019-03-21T07:30:46.505Z,1029.24
2019-03-21T07:31:46.525Z,1029.2
2019-03-21T07:32:46.547Z,1029.19
2019-03-21T07:33:46.568Z,1029.2
2019-03-21T07:34:46.582Z,1029.24
2019-03-21T07:36:46.620Z,1029.24
2019-03-21T07:37:46.643Z,1029.29
2019-03-21T07:38:46.662Z,1029.27
2019-03-21T07:39:46.683Z,1029.29
2019-03-21T07:40:46.697Z,1029.29
2019-03-21T07:41:46.716Z,1029.34
2019-03-21T07:42:46.739Z,1029.37
2019-03-21T07:43:46.758Z,1029.36
2019-03-21T07:44:46.777Z,1029.35
2019-03-21T07:45:46.793Z,1029.34
2019-03-21T07:46:46.823Z,1029.36
2019-03-21T07:47:46.834Z,1029.35
2019-03-21T07:48:46.850Z,1029.35
2019-03-21T07:49:46.873Z,1029.35
2019-03-21T07:50:46.887Z,1029.36
2019-03-21T07:52:46.926Z,1029.34
2019-03-21T07:53:46.950Z,1029.4
2019-03-21T07:54:46.968Z,1029.38
2019-03-21T07:55:46.983Z,1029.41
2019-03-21T07:56:47.009Z,1029.39
2019-03-21T07:57:47.021Z,1029.43
2019-03-21T07:58:47.045Z,1029.4
2019-03-21T07:59:47.064Z,1029.43
2019-03-21T08:00:47.084Z,1029.41
2019-03-21T08:01:47.129Z,1029.39
2019-03-21T08:02:47.122Z,1029.4
2019-03-21T08:03:47.143Z,1029.38
2019-03-21T08:04:47.161Z,1029.43
2019-03-21T08:05:47.176Z,1029.39
2019-03-21T08:07:47.215Z,1029.38
2019-03-21T08:08:47.238Z,1029.4
2019-03-21T08:09:47.254Z,1029.4
2019-03-21T08:10:47.276Z,1029.42
2019-03-21T08:11:47.296Z,1029.4
2019-03-21T08:12:47.314Z,1029.43
2019-03-21T08:13:47.330Z,1029.38
2019-03-21T08:14:47.351Z,1029.36
2019-03-21T08:15:47.372Z,1029.37
2019-03-21T08:16:47.387Z,1029.37
2019-03-21T08:17:47.412Z,1029.38
2019-03-21T08:18:47.427Z,1029.38
2019-03-21T08:19:47.448Z,1029.36
2019-03-21T08:20:55.831Z,1029.41
2019-03-21T08:21:47.484Z,1029.4
2019-03-21T08:22:47.507Z,1029.43
2019-03-21T08:23:47.526Z,1029.42
2019-03-21T08:24:47.547Z,1029.41
2019-03-21T08:25:47.561Z,1029.45
2019-03-21T08:26:47.583Z,1029.44
2019-03-21T08:27:47.602Z,1029.48
2019-03-21T08:28:47.619Z,1029.47
2019-03-21T08:29:47.642Z,1029.49
2019-03-21T08:30:47.656Z,1029.42
2019-03-21T08:31:47.680Z,1029.46
2019-03-21T08:32:47.695Z,1029.53
2019-03-21T08:33:47.720Z,1029.48
2019-03-21T08:34:47.738Z,1029.52
2019-03-21T08:35:47.752Z,1029.56
2019-03-21T08:36:47.776Z,1029.54
2019-03-21T08:37:47.791Z,1029.53
2019-03-21T08:39:47.830Z,1029.56
2019-03-21T08:40:47.853Z,1029.61
2019-03-21T08:41:47.874Z,1029.58
2019-03-21T08:42:47.892Z,1029.58
2019-03-21T08:43:47.909Z,1029.57
2019-03-21T08:44:47.931Z,1029.54
2019-03-21T08:45:47.950Z,1029.54
2019-03-21T08:46:47.969Z,1029.56
2019-03-21T08:47:47.989Z,1029.54
2019-03-21T08:48:48.002Z,1029.55
2019-03-21T08:49:48.128Z,1029.55
2019-03-21T08:50:48.042Z,1029.57
2019-03-21T08:51:48.067Z,1029.56
2019-03-21T08:52:48.080Z,1029.6
2019-03-21T08:53:48.110Z,1029.6
2019-03-21T08:55:48.145Z,1029.59
2019-03-21T08:56:48.159Z,1029.59
2019-03-21T08:57:48.181Z,1029.64
2019-03-21T08:58:48.205Z,1029.61
2019-03-21T08:59:48.218Z,1029.6
2019-03-21T09:00:48.238Z,1029.59
2019-03-21T09:01:48.255Z,1029.61
2019-03-21T09:02:48.281Z,1029.66
2019-03-21T09:03:48.292Z,1029.64
2019-03-21T09:04:48.316Z,1029.62
2019-03-21T09:05:48.332Z,1029.61
2019-03-21T09:06:48.352Z,1029.62
2019-03-21T09:07:48.375Z,1029.66
2019-03-21T09:08:48.394Z,1029.63
2019-03-21T09:09:48.516Z,1029.67
2019-03-21T09:11:48.452Z,1029.57
2019-03-21T09:12:48.472Z,1029.61
2019-03-21T09:13:48.488Z,1029.63
2019-03-21T09:14:48.510Z,1029.61
2019-03-21T09:15:48.526Z,1029.63
2019-03-21T09:16:48.550Z,1029.62
2019-03-21T09:17:48.566Z,1029.6
2019-03-21T09:18:48.590Z,1029.61
2019-03-21T09:19:48.609Z,1029.63
2019-03-21T09:20:48.629Z,1029.62
2019-03-21T09:21:48.643Z,1029.61
2019-03-21T09:22:48.667Z,1029.63
2019-03-21T09:23:48.683Z,1029.66
2019-03-21T09:24:48.711Z,1029.64
2019-03-21T09:25:51.188Z,1029.63
2019-03-21T09:27:48.764Z,1029.62
2019-03-21T09:28:48.787Z,1029.64
2019-03-21T09:29:53.322Z,1029.62
2019-03-21T09:30:50.578Z,1029.68
2019-03-21T09:31:48.842Z,1029.63
2019-03-21T09:32:48.861Z,1029.69
2019-03-21T09:33:48.885Z,1029.69
2019-03-21T09:34:48.905Z,1029.63
2019-03-21T09:35:48.929Z,1029.69
2019-03-21T09:36:48.945Z,1029.64
2019-03-21T09:37:48.960Z,1029.61
2019-03-21T09:38:48.984Z,1029.61
2019-03-21T09:39:49.004Z,1029.58
2019-03-21T09:40:49.021Z,1029.61
2019-03-21T09:42:49.060Z,1029.62
2019-03-21T09:43:49.087Z,1029.6
2019-03-21T09:44:49.100Z,1029.59
2019-03-21T09:45:49.125Z,1029.56
2019-03-21T09:46:50.954Z,1029.54
2019-03-21T09:47:49.163Z,1029.54
2019-03-21T09:48:49.186Z,1029.57
2019-03-21T09:49:49.209Z,1029.51
2019-03-21T09:50:49.218Z,1029.53
2019-03-21T09:51:49.248Z,1029.54
2019-03-21T09:52:49.259Z,1029.56
2019-03-21T09:53:49.283Z,1029.55
2019-03-21T09:54:49.301Z,1029.54
2019-03-21T09:55:49.323Z,1029.52
2019-03-21T09:56:49.343Z,1029.53
2019-03-21T09:57:49.363Z,1029.51
2019-03-21T09:58:49.378Z,1029.5
2019-03-21T09:59:49.402Z,1029.47
2019-03-21T10:00:49.425Z,1029.46
2019-03-21T10:01:49.439Z,1029.53
2019-03-21T10:02:49.462Z,1029.51
2019-03-21T10:03:49.479Z,1029.49
2019-03-21T10:04:49.503Z,1029.47
2019-03-21T10:05:49.518Z,1029.47
2019-03-21T10:06:49.540Z,1029.44
2019-03-21T10:07:49.562Z,1029.47
2019-03-21T10:08:49.579Z,1029.51
2019-03-21T10:09:49.602Z,1029.4
2019-03-21T10:10:49.618Z,1029.4
2019-03-21T10:11:49.644Z,1029.41
2019-03-21T10:12:49.657Z,1029.41
2019-03-21T10:14:49.704Z,1029.43
2019-03-21T10:15:49.723Z,1029.43
2019-03-21T10:16:49.741Z,1029.45
2019-03-21T10:17:49.766Z,1029.45
2019-03-21T10:18:49.780Z,1029.42
2019-03-21T10:19:49.805Z,1029.45
2019-03-21T10:20:49.840Z,1029.43
2019-03-21T10:21:49.840Z,1029.44
2019-03-21T10:22:49.866Z,1029.49
2019-03-21T10:23:49.879Z,1029.46
2019-03-21T10:24:49.904Z,1029.47
2019-03-21T10:25:49.921Z,1029.47
2019-03-21T10:26:49.945Z,1029.51
2019-03-21T10:27:49.969Z,1029.53
2019-03-21T10:28:49.984Z,1029.55
2019-03-21T10:30:50.021Z,1029.56
2019-03-21T10:31:50.049Z,1029.51
2019-03-21T10:32:50.061Z,1029.54
2019-03-21T10:33:50.088Z,1029.5
2019-03-21T10:34:50.105Z,1029.52
2019-03-21T10:35:50.122Z,1029.44
2019-03-21T10:36:50.146Z,1029.47
2019-03-21T10:37:50.166Z,1029.5
2019-03-21T10:38:50.199Z,1029.49
2019-03-21T10:39:50.202Z,1029.46
2019-03-21T10:40:50.229Z,1029.45
2019-03-21T10:41:50.248Z,1029.47
2019-03-21T10:42:50.263Z,1029.47
2019-03-21T10:43:50.289Z,1029.45
2019-03-21T10:44:50.308Z,1029.45
2019-03-21T10:46:50.354Z,1029.46
2019-03-21T10:47:50.366Z,1029.49
2019-03-21T10:48:50.386Z,1029.47
2019-03-21T10:49:50.412Z,1029.44
2019-03-21T10:50:50.430Z,1029.45
2019-03-21T10:51:54.691Z,1029.43
2019-03-21T10:52:50.468Z,1029.45
2019-03-21T10:53:50.491Z,1029.47
2019-03-21T10:54:50.507Z,1029.45
2019-03-21T10:55:50.528Z,1029.46
2019-03-21T10:56:50.552Z,1029.48
2019-03-21T10:57:50.572Z,1029.45
2019-03-21T10:58:50.593Z,1029.47
2019-03-21T10:59:50.610Z,1029.47
2019-03-21T11:00:50.636Z,1029.48
2019-03-21T11:02:50.676Z,1029.45
2019-03-21T11:03:50.692Z,1029.43
2019-03-21T11:04:50.715Z,1029.42
2019-03-21T11:05:50.736Z,1029.43
2019-03-21T11:06:50.758Z,1029.45
2019-03-21T11:07:50.774Z,1029.4
2019-03-21T11:08:50.793Z,1029.46
2019-03-21T11:09:50.826Z,1029.41
2019-03-21T11:10:50.835Z,1029.45
2019-03-21T11:11:50.856Z,1029.46
2019-03-21T11:12:50.882Z,1029.41
2019-03-21T11:13:50.904Z,1029.42
2019-03-21T11:14:50.921Z,1029.42
2019-03-21T11:15:50.988Z,1029.39
2019-03-21T11:17:50.996Z,1029.33
2019-03-21T11:18:50.999Z,1029.37
2019-03-21T11:19:51.039Z,1029.4
2019-03-21T11:20:51.044Z,1029.33
2019-03-21T11:21:51.073Z,1029.36
2019-03-21T11:22:51.080Z,1029.35
2019-03-21T11:23:51.105Z,1029.28
2019-03-21T11:24:51.122Z,1029.29
2019-03-21T11:25:51.146Z,1029.31
2019-03-21T11:26:51.162Z,1029.28
2019-03-21T11:27:51.189Z,1029.27
2019-03-21T11:28:51.209Z,1029.28
2019-03-21T11:29:51.223Z,1029.3
2019-03-21T11:30:51.250Z,1029.26
2019-03-21T11:31:51.266Z,1029.19
2019-03-21T11:32:51.287Z,1029.24
2019-03-21T11:33:51.306Z,1029.17
2019-03-21T11:34:51.331Z,1029.19
2019-03-21T11:35:51.355Z,1029.16
2019-03-21T11:36:51.368Z,1029.15
2019-03-21T11:37:51.393Z,1029.14
2019-03-21T11:38:51.413Z,1029.16
2019-03-21T11:39:51.430Z,1029.14
2019-03-21T11:40:51.459Z,1029.16
2019-03-21T11:41:51.511Z,1029.15
2019-03-21T11:42:51.496Z,1029.16
2019-03-21T11:43:51.517Z,1029.16
2019-03-21T11:44:51.532Z,1029.18
2019-03-21T11:45:51.558Z,1029.13
2019-03-21T11:46:51.590Z,1029.16
2019-03-21T11:47:51.601Z,1029.12
2019-03-21T11:49:51.636Z,1029.16
2019-03-21T11:50:51.664Z,1029.11
2019-03-21T11:51:51.683Z,1029.12
2019-03-21T11:52:51.701Z,1029.16
2019-03-21T11:53:51.719Z,1029.16
2019-03-21T11:54:51.744Z,1029.17
2019-03-21T11:55:51.763Z,1029.12
2019-03-21T11:56:51.802Z,1029.13
2019-03-21T11:57:51.801Z,1029.08
2019-03-21T11:58:51.825Z,1029.09
2019-03-21T11:59:52.500Z,1029.05
2019-03-21T12:00:51.867Z,1029.11
2019-03-21T12:01:51.884Z,1029.06
2019-03-21T12:02:51.903Z,1029.06
2019-03-21T12:03:51.929Z,1029.06
2019-03-21T12:05:51.966Z,1029.1
2019-03-21T12:06:51.990Z,1029.09
2019-03-21T12:07:52.013Z,1029.06
2019-03-21T12:08:52.032Z,1029.09
2019-03-21T12:09:52.054Z,1029.03
2019-03-21T12:10:52.070Z,1029.02
2019-03-21T12:11:52.090Z,1029.04
2019-03-21T12:12:52.111Z,1029.03
2019-03-21T12:13:52.138Z,1029.01
2019-03-21T12:14:52.153Z,1029.02
2019-03-21T12:15:52.176Z,1029.01
2019-03-21T12:16:52.198Z,1028.98
2019-03-21T12:17:52.221Z,1028.99
2019-03-21T12:18:52.237Z,1028.99
2019-03-21T12:19:52.255Z,1029
2019-03-21T12:21:52.305Z,1029
2019-03-21T12:22:52.322Z,1028.96
2019-03-21T12:23:52.342Z,1028.99
2019-03-21T12:24:52.409Z,1028.97
2019-03-21T12:25:52.379Z,1028.97
2019-03-21T12:26:52.402Z,1028.98
2019-03-21T12:27:52.425Z,1028.95
2019-03-21T12:28:52.442Z,1028.93
2019-03-21T12:29:52.469Z,1028.92
2019-03-21T12:30:52.483Z,1028.95
2019-03-21T12:31:52.509Z,1029.01
2019-03-21T12:32:52.525Z,1028.93
2019-03-21T12:33:52.553Z,1028.98
2019-03-21T12:34:52.568Z,1029
2019-03-21T12:35:52.587Z,1028.94
2019-03-21T12:37:52.633Z,1028.93
2019-03-21T12:38:52.650Z,1028.91
2019-03-21T12:39:52.675Z,1028.9
2019-03-21T12:40:52.696Z,1028.88
2019-03-21T12:41:52.717Z,1028.86
2019-03-21T12:42:52.733Z,1028.85
2019-03-21T12:43:52.754Z,1028.82
2019-03-21T12:44:52.781Z,1028.85
2019-03-21T12:45:52.803Z,1028.77
2019-03-21T12:46:52.820Z,1028.77
2019-03-21T12:47:52.837Z,1028.78
2019-03-21T12:48:52.862Z,1028.8